Meteo Giornale » Osservazioni meteo Italia » Milano-Malpensa

ore: 17:50 - Osservazioni Meteo Milano-Malpensa
Lat. 45° 37' N Lon. 8° 44' E Alt. 234 metri s.l.m.

sereno Europe/Rome

3 °C

Sereno

Temp. 24 Ore

-4 °C

9 °C

Nord

5.5 Km/h

Dew point -7 °C

Umidità 47 %

Visibilità  10 Km

Il sole sorge alle ore 07:54

Il sole tramonta alle ore 16:43

Data e Ora Cielo e Fenomeni T °C DP °C Um. % Pres. hPa Vis. km Vento km/h
Oggi h: 17:50 sereno Sereno 3 -7 47 1018 10 N 5.5
Oggi h: 17:20 sereno Sereno 5 -7 41 1018 10 N 5.5
Oggi h: 16:50 sereno Sereno 6 -8 35 1018 10 SO 7.4
Oggi h: 16:20 sereno Sereno 7 -8 33 1018 10 S/SO 7.4
Oggi h: 15:50 sereno Sereno 7 -8 33 1018 10 S/SO 9.3
Oggi h: 15:20 sereno Sereno 8 -8 31 1018 10 SO 9.3
Oggi h: 14:50 sereno Sereno 8 -9 28 1018 10 SO 9.3
Oggi h: 14:20 sereno Sereno 8 -8 31 1018 10 SO 9.3
Oggi h: 13:50 sereno Sereno 9 -8 29 1018 10 N 5.5
Oggi h: 13:20 sereno Sereno 8 -11 24 1018 10 N 3.7
Oggi h: 12:50 sereno Sereno 9 -9 26 1019 10 N 3.7
Oggi h: 12:20 sereno Sereno 8 -9 28 1019 10 N 3.7
Oggi h: 11:50 sereno Sereno 8 -8 31 1019 10 N 1.8
Oggi h: 11:20 sereno Sereno 7 -9 30 1020 10 N 1.8
Oggi h: 10:50 sereno Sereno 6 -7 38 1020 10 N 3.7
Oggi h: 10:20 sereno Sereno 5 -8 38 1020 10 N 3.7
Oggi h: 09:50 sereno Sereno 4 -6 47 1020 10 N 1.8
Oggi h: 09:20 sereno Sereno -0 -6 63 1019 10 N 5.5
Oggi h: 08:50 sereno Sereno -1 -8 58 1019 10 N 7.4
Oggi h: 08:20 sereno Sereno -3 -8 68 1019 10 N 7.4
Oggi h: 07:50 sereno Sereno -4 -9 68 1019 10 N/NE 11.1
Oggi h: 07:20 sereno Sereno -2 -8 63 1019 10 N 5.5
Oggi h: 06:50 sereno Sereno -3 -9 63 1019 10 N 3.7
Oggi h: 06:20 sereno Sereno -3 -8 68 1019 10 N 5.5
Oggi h: 05:50 sereno Sereno -2 -8 63 1019 10 N 7.4
Oggi h: 05:20 sereno Sereno -3 -8 68 1019 10 N 7.4
Oggi h: 04:50 sereno Sereno -3 -8 68 1019 10 N 9.3
Oggi h: 04:20 sereno Sereno -3 -9 63 1019 10 N 11.1
Oggi h: 03:50 sereno Sereno -3 -9 63 1019 10 N 13
Oggi h: 03:20 sereno Sereno -2 -9 58 1019 10 N 11.1
Oggi h: 02:50 sereno Sereno -2 -9 58 1019 10 N 11.1
Oggi h: 02:20 sereno Sereno -2 -9 58 1019 10 N 11.1
Oggi h: 01:50 sereno Sereno -2 -9 58 1019 10 N/NE 13
Oggi h: 01:20 sereno Sereno -2 -9 58 1019 10 N 11.1
Oggi h: 00:50 sereno Sereno 0 -9 50 1019 10 N 14.8
Oggi h: 00:20 sereno Sereno -1 -9 54 1019 10 N 13
Ieri h: 23:50 sereno Sereno -1 -9 54 1019 10 N 13
Ieri h: 23:20 sereno Sereno -2 -8 63 1019 10 N/NE 11.1
Ieri h: 22:50 sereno Sereno -1 -9 54 1019 10 N/NE 7.4
Ieri h: 22:20 sereno Sereno -1 -8 58 1019 10 NE 7.4
Ieri h: 21:50 sereno Sereno 0 -8 54 1019 10 N 5.5
Ieri h: 21:20 sereno Sereno 1 -7 55 1019 10 N 5.5
Ieri h: 20:50 sereno Sereno 4 -8 41 1019 10 N 5.5
Ieri h: 20:20 sereno Sereno 1 -6 59 1018 10 N 5.5
Ieri h: 19:50 sereno Sereno 1 -5 64 1018 10 N 9.3
Ieri h: 19:20 sereno Sereno 3 -3 64 1018 10 N 13
Ieri h: 18:50 sereno Sereno 4 -2 64 1018 10 N/NO 11.1
Ieri h: 18:20 sereno Sereno 5 -1 65 1018 10 N/NO 9.3
Ieri h: 17:50 sereno Sereno 8 -1 52 1018 10 O 11.1